createdAt,value
2022-08-31T00:04:04.054Z,93.67
2022-08-31T00:06:33.586Z,93.73
2022-08-31T00:09:01.981Z,93.38
2022-08-31T00:14:56.749Z,93.00
2022-08-31T00:17:24.098Z,92.99
2022-08-31T00:19:50.797Z,93.20
2022-08-31T00:22:17.428Z,93.56
2022-08-31T00:24:44.062Z,93.34
2022-08-31T00:27:10.973Z,93.63
2022-08-31T00:29:37.626Z,94.07
2022-08-31T00:32:04.444Z,94.31
2022-08-31T00:34:31.164Z,94.60
2022-08-31T00:37:01.070Z,95.40
2022-08-31T00:39:27.827Z,95.30
2022-08-31T00:41:54.599Z,95.21
2022-08-31T00:44:21.347Z,95.29
2022-08-31T00:46:48.123Z,94.67
2022-08-31T00:49:19.456Z,94.38
2022-08-31T00:51:55.404Z,94.89
2022-08-31T00:54:38.846Z,94.69
2022-08-31T00:57:07.209Z,95.04
2022-08-31T00:59:34.069Z,95.02
2022-08-31T01:02:01.674Z,94.77
2022-08-31T01:04:29.796Z,94.90
2022-08-31T01:06:57.247Z,94.96
2022-08-31T01:09:26.929Z,95.25
2022-08-31T01:11:54.206Z,95.39
2022-08-31T01:14:21.210Z,94.98
2022-08-31T01:16:52.191Z,94.82
2022-08-31T01:19:54.271Z,94.53
2022-08-31T01:22:20.930Z,94.85
2022-08-31T01:24:49.564Z,95.07
2022-08-31T01:27:25.060Z,95.02
2022-08-31T01:29:51.791Z,94.60
2022-08-31T01:32:18.653Z,94.96
2022-08-31T01:34:45.355Z,95.08
2022-08-31T01:37:12.727Z,94.55
2022-08-31T01:39:40.218Z,95.05
2022-08-31T01:42:07.025Z,95.02
2022-08-31T01:44:33.738Z,95.42
2022-08-31T01:47:01.072Z,94.80
2022-08-31T01:49:28.992Z,94.66
2022-08-31T01:51:55.906Z,95.12
2022-08-31T01:54:25.147Z,94.53
2022-08-31T01:56:51.968Z,94.63
2022-08-31T01:59:21.156Z,94.63
2022-08-31T02:01:51.361Z,94.32
2022-08-31T02:04:23.651Z,94.42
2022-08-31T02:06:54.340Z,94.11
2022-08-31T02:09:22.346Z,94.18
2022-08-31T02:11:49.670Z,94.14
2022-08-31T02:14:17.429Z,93.68
2022-08-31T02:16:44.612Z,93.63
2022-08-31T02:19:14.727Z,93.51
2022-08-31T02:21:41.603Z,94.51
2022-08-31T02:24:11.243Z,94.19
2022-08-31T02:26:38.755Z,93.61
2022-08-31T02:29:07.420Z,93.84
2022-08-31T02:31:34.314Z,93.50
2022-08-31T02:34:01.149Z,93.35
2022-08-31T02:36:28.288Z,93.26
2022-08-31T02:38:55.293Z,93.44
2022-08-31T02:41:22.753Z,93.36
2022-08-31T02:43:49.452Z,93.54
2022-08-31T02:46:16.277Z,93.71
2022-08-31T02:48:43.015Z,93.84
2022-08-31T02:51:10.877Z,94.16
2022-08-31T02:53:38.708Z,93.78
2022-08-31T02:56:08.067Z,93.33
2022-08-31T02:58:36.606Z,93.50
2022-08-31T03:01:04.313Z,93.29
2022-08-31T03:03:31.487Z,93.66
2022-08-31T03:05:58.539Z,93.10
2022-08-31T03:08:26.020Z,93.20
2022-08-31T03:10:53.958Z,93.45
2022-08-31T03:13:21.652Z,93.75
2022-08-31T03:15:48.484Z,93.95
2022-08-31T03:18:15.305Z,93.59
2022-08-31T03:20:42.015Z,94.16
2022-08-31T03:23:09.334Z,94.06
2022-08-31T03:25:36.599Z,95.00
2022-08-31T03:28:06.335Z,95.99
2022-08-31T03:30:33.464Z,96.01
2022-08-31T03:33:02.339Z,95.83
2022-08-31T03:35:30.203Z,95.72
2022-08-31T03:37:57.641Z,95.52
2022-08-31T03:40:24.784Z,95.69
2022-08-31T03:42:51.714Z,95.54
2022-08-31T03:45:18.562Z,95.54
2022-08-31T03:47:45.720Z,95.54
2022-08-31T03:50:12.819Z,95.91
2022-08-31T03:52:39.968Z,95.73
2022-08-31T03:55:07.463Z,96.13
2022-08-31T03:57:34.972Z,96.02
2022-08-31T04:00:02.088Z,96.47
2022-08-31T04:02:29.299Z,96.31
2022-08-31T04:04:57.217Z,96.69
2022-08-31T04:07:24.104Z,96.71
2022-08-31T04:09:51.172Z,96.58
2022-08-31T04:12:19.249Z,96.75
2022-08-31T04:14:46.015Z,96.89
2022-08-31T04:17:13.995Z,97.09
2022-08-31T04:19:43.959Z,96.63
2022-08-31T04:22:10.794Z,96.60
2022-08-31T04:24:37.482Z,96.92
2022-08-31T04:27:04.832Z,96.62
2022-08-31T04:29:31.806Z,96.89
2022-08-31T04:31:58.569Z,96.52
2022-08-31T04:34:25.719Z,96.19
2022-08-31T04:36:52.449Z,95.91
2022-08-31T04:39:19.528Z,95.45
2022-08-31T04:41:50.451Z,95.25
2022-08-31T04:44:19.996Z,94.76
2022-08-31T04:46:47.140Z,94.50
2022-08-31T04:49:15.325Z,94.08
2022-08-31T04:51:45.121Z,93.50
2022-08-31T04:54:14.137Z,92.64
2022-08-31T04:56:43.968Z,92.57
2022-08-31T04:59:18.305Z,93.13
2022-08-31T05:01:45.921Z,92.97
2022-08-31T05:04:15.220Z,92.78
2022-08-31T05:06:44.521Z,92.31
2022-08-31T05:09:14.706Z,92.24
2022-08-31T05:11:41.935Z,91.97
2022-08-31T05:14:09.401Z,91.60
2022-08-31T05:16:39.540Z,91.70
2022-08-31T05:19:06.910Z,91.47
2022-08-31T05:21:36.617Z,91.25
2022-08-31T05:24:18.292Z,91.26
2022-08-31T05:26:48.524Z,91.00
2022-08-31T05:29:16.791Z,91.16
2022-08-31T05:31:49.107Z,91.62
2022-08-31T05:34:19.813Z,91.90
2022-08-31T05:36:51.207Z,91.13
2022-08-31T05:39:18.607Z,91.21
2022-08-31T05:41:46.980Z,90.63
2022-08-31T05:44:15.464Z,90.76
2022-08-31T05:46:42.835Z,90.88
2022-08-31T05:49:11.553Z,90.47
2022-08-31T05:51:39.273Z,90.37
2022-08-31T05:54:07.590Z,90.35
2022-08-31T05:56:34.750Z,90.34
2022-08-31T05:59:01.835Z,90.31
2022-08-31T06:01:33.165Z,89.80
2022-08-31T06:04:01.715Z,89.08
2022-08-31T06:06:29.632Z,89.10
2022-08-31T06:08:57.445Z,88.59
2022-08-31T06:11:28.347Z,88.21
2022-08-31T06:13:59.156Z,88.40
2022-08-31T06:16:27.173Z,88.42
2022-08-31T06:18:55.754Z,87.87
2022-08-31T06:21:25.300Z,87.52
2022-08-31T06:23:54.781Z,87.16
2022-08-31T06:26:23.258Z,87.63
2022-08-31T06:28:52.549Z,87.25
2022-08-31T06:31:25.138Z,87.48
2022-08-31T06:33:52.265Z,86.74
2022-08-31T06:36:26.738Z,86.50
2022-08-31T06:39:01.534Z,86.29
2022-08-31T06:41:38.765Z,86.32
2022-08-31T06:44:11.299Z,86.00
2022-08-31T06:46:40.155Z,86.23
2022-08-31T06:49:08.415Z,86.01
2022-08-31T06:51:38.052Z,85.94
2022-08-31T06:54:28.608Z,85.70
2022-08-31T06:56:59.828Z,86.08
2022-08-31T06:59:29.494Z,85.48
2022-08-31T07:01:58.324Z,85.84
2022-08-31T07:04:28.538Z,85.70
2022-08-31T07:06:59.906Z,85.19
2022-08-31T07:09:26.710Z,85.40
2022-08-31T07:11:53.772Z,85.87
2022-08-31T07:14:23.624Z,85.60
2022-08-31T07:16:52.192Z,85.32
2022-08-31T07:19:19.297Z,85.83
2022-08-31T07:21:57.438Z,85.82
2022-08-31T07:24:30.797Z,85.67
2022-08-31T07:27:04.857Z,85.69
2022-08-31T07:29:40.798Z,85.51
2022-08-31T07:32:09.355Z,85.46
2022-08-31T07:34:38.067Z,84.90
2022-08-31T07:37:24.791Z,84.90
2022-08-31T07:40:10.410Z,84.57
2022-08-31T07:42:47.077Z,84.73
2022-08-31T07:45:22.976Z,84.70
2022-08-31T07:47:51.954Z,84.25
2022-08-31T07:50:20.329Z,84.21
2022-08-31T07:52:55.752Z,84.18
2022-08-31T07:55:25.428Z,83.95
2022-08-31T07:57:58.943Z,83.76
2022-08-31T08:00:29.353Z,84.08
2022-08-31T08:02:56.712Z,83.75
2022-08-31T08:05:29.181Z,83.54
2022-08-31T08:08:09.384Z,83.62
2022-08-31T08:10:41.962Z,83.54
2022-08-31T08:13:09.241Z,83.63
2022-08-31T08:15:37.363Z,83.49
2022-08-31T08:18:07.085Z,83.58
2022-08-31T08:20:38.557Z,83.56
2022-08-31T08:23:14.903Z,83.21
2022-08-31T08:25:43.744Z,83.49
2022-08-31T08:31:08.371Z,82.85
2022-08-31T08:33:36.450Z,82.56
2022-08-31T08:36:07.949Z,82.21
2022-08-31T08:38:39.314Z,81.75
2022-08-31T08:41:13.414Z,82.17
2022-08-31T08:43:43.759Z,82.03
2022-08-31T08:46:34.026Z,81.64
2022-08-31T08:49:15.780Z,80.99
2022-08-31T08:51:45.069Z,80.16
2022-08-31T08:54:15.943Z,80.37
2022-08-31T08:56:47.813Z,79.93
2022-08-31T08:59:19.247Z,79.50
2022-08-31T09:01:49.767Z,79.68
2022-08-31T09:04:42.500Z,79.00
2022-08-31T09:07:30.807Z,78.61
2022-08-31T09:10:31.511Z,77.92
2022-08-31T09:13:25.910Z,77.42
2022-08-31T09:15:59.051Z,76.91
2022-08-31T09:18:26.550Z,77.19
2022-08-31T09:21:05.802Z,77.23
2022-08-31T09:23:38.968Z,76.03
2022-08-31T09:26:08.345Z,75.41
2022-08-31T09:28:39.074Z,74.68
2022-08-31T09:31:06.287Z,74.38
2022-08-31T09:33:35.712Z,74.30
2022-08-31T09:36:22.030Z,74.85
2022-08-31T09:38:49.669Z,74.90
2022-08-31T09:41:37.562Z,74.48
2022-08-31T09:44:24.579Z,74.55
2022-08-31T09:46:54.580Z,74.75
2022-08-31T09:49:28.183Z,74.06
2022-08-31T09:52:46.295Z,72.30
2022-08-31T09:55:25.453Z,72.56
2022-08-31T09:58:02.202Z,72.81
2022-08-31T10:00:38.985Z,73.10
2022-08-31T10:03:21.971Z,72.54
2022-08-31T10:05:51.928Z,72.64
2022-08-31T10:08:42.469Z,73.11
2022-08-31T10:11:16.656Z,73.33
2022-08-31T10:13:57.871Z,73.06
2022-08-31T10:16:30.762Z,72.41
2022-08-31T10:19:07.663Z,71.80
2022-08-31T10:21:56.332Z,72.40
2022-08-31T10:24:48.368Z,71.73
2022-08-31T10:27:26.490Z,71.56
2022-08-31T10:30:06.377Z,71.05
2022-08-31T10:32:45.188Z,71.43
2022-08-31T10:35:16.117Z,70.86
2022-08-31T10:38:26.340Z,71.73
2022-08-31T10:41:17.078Z,70.39
2022-08-31T10:44:18.089Z,70.08
2022-08-31T10:46:45.629Z,69.93
2022-08-31T10:49:14.555Z,68.73
2022-08-31T10:51:51.014Z,68.02
2022-08-31T10:55:06.629Z,67.42
2022-08-31T10:58:00.472Z,65.87
2022-08-31T11:00:41.963Z,66.33
2022-08-31T11:03:40.812Z,66.19
2022-08-31T11:06:28.879Z,64.77
2022-08-31T11:09:14.723Z,64.99
2022-08-31T11:11:49.543Z,65.28
2022-08-31T11:14:34.066Z,65.63
2022-08-31T11:17:18.502Z,65.94
2022-08-31T11:19:51.267Z,64.81
2022-08-31T11:22:37.806Z,65.37
2022-08-31T11:25:58.891Z,65.58
2022-08-31T11:28:50.430Z,64.61
2022-08-31T11:31:27.494Z,64.65
2022-08-31T11:34:17.326Z,65.14
2022-08-31T11:36:50.525Z,66.62
2022-08-31T11:39:35.693Z,66.70
2022-08-31T11:42:28.267Z,66.43
2022-08-31T11:45:22.809Z,66.70
2022-08-31T11:47:54.873Z,66.49
2022-08-31T11:50:21.961Z,66.32
2022-08-31T11:52:53.623Z,64.78
2022-08-31T11:55:43.363Z,63.90
2022-08-31T11:58:20.158Z,64.58
2022-08-31T12:01:11.776Z,64.88
2022-08-31T12:03:50.775Z,65.10
2022-08-31T12:06:29.907Z,64.54
2022-08-31T12:09:27.983Z,63.97
2022-08-31T12:12:33.452Z,63.62
2022-08-31T12:15:08.039Z,62.53
2022-08-31T12:17:55.879Z,61.94
2022-08-31T12:21:21.808Z,63.09
2022-08-31T12:24:19.032Z,62.87
2022-08-31T12:27:09.606Z,61.73
2022-08-31T12:29:40.887Z,62.30
2022-08-31T12:32:11.074Z,61.90
2022-08-31T12:34:40.673Z,60.09
2022-08-31T12:37:23.447Z,58.38
2022-08-31T12:40:05.223Z,57.39
2022-08-31T12:42:33.513Z,56.44
2022-08-31T12:45:00.403Z,55.47
2022-08-31T12:47:56.306Z,55.71
2022-08-31T12:50:32.241Z,55.80
2022-08-31T12:52:58.758Z,54.96
2022-08-31T12:55:28.965Z,53.86
2022-08-31T12:58:28.207Z,52.81
2022-08-31T13:01:10.831Z,52.33
2022-08-31T13:03:46.784Z,52.66
2022-08-31T13:06:27.424Z,52.42
2022-08-31T13:08:55.086Z,51.87
2022-08-31T13:11:40.910Z,51.09
2022-08-31T13:14:35.806Z,50.61
2022-08-31T13:17:14.342Z,50.14
2022-08-31T13:19:49.710Z,47.78
2022-08-31T13:22:44.749Z,49.09
2022-08-31T13:25:13.875Z,50.43
2022-08-31T13:27:48.317Z,50.68
2022-08-31T13:30:19.155Z,51.08
2022-08-31T13:32:51.658Z,51.48
2022-08-31T13:35:21.475Z,51.15
2022-08-31T13:38:05.609Z,52.17
2022-08-31T13:40:42.174Z,53.03
2022-08-31T13:43:10.840Z,54.38
2022-08-31T13:48:54.052Z,55.74
2022-08-31T13:51:32.539Z,57.40
2022-08-31T13:54:12.607Z,57.88
2022-08-31T13:56:59.103Z,58.42
2022-08-31T13:59:34.441Z,59.10
2022-08-31T14:02:25.237Z,61.30
2022-08-31T14:05:05.283Z,63.84
2022-08-31T14:07:43.491Z,62.54
2022-08-31T14:10:17.622Z,61.71
2022-08-31T14:12:52.917Z,61.82
2022-08-31T14:18:41.342Z,64.26
2022-08-31T14:21:22.297Z,66.47
2022-08-31T14:24:01.673Z,68.67
2022-08-31T14:26:48.101Z,68.10
2022-08-31T14:29:16.829Z,67.67
2022-08-31T14:31:43.491Z,66.77
2022-08-31T14:34:20.775Z,66.21
2022-08-31T14:36:53.138Z,65.60
2022-08-31T14:39:26.689Z,64.52
2022-08-31T14:41:56.399Z,64.68
2022-08-31T14:44:29.376Z,65.24
2022-08-31T14:46:56.486Z,65.05
2022-08-31T14:49:23.720Z,66.30
2022-08-31T14:51:51.074Z,65.66
2022-08-31T14:54:17.990Z,65.23
2022-08-31T14:56:50.352Z,65.45
2022-08-31T14:59:20.253Z,65.31
2022-08-31T15:01:58.266Z,64.83
2022-08-31T15:04:28.948Z,64.10
2022-08-31T15:07:09.826Z,63.80
2022-08-31T15:09:40.687Z,63.99
2022-08-31T15:12:08.731Z,63.79
2022-08-31T15:17:24.357Z,63.58
2022-08-31T15:19:56.087Z,63.94
2022-08-31T15:22:28.204Z,64.88
2022-08-31T15:24:59.913Z,65.68
2022-08-31T15:27:31.931Z,66.15
2022-08-31T15:30:08.240Z,67.41
2022-08-31T15:32:45.480Z,68.17
2022-08-31T15:35:18.148Z,67.66
2022-08-31T15:37:52.336Z,67.70
2022-08-31T15:40:22.168Z,67.61
2022-08-31T15:42:55.824Z,68.96
2022-08-31T15:45:23.624Z,68.97
2022-08-31T15:48:09.133Z,69.18
2022-08-31T15:50:49.044Z,69.71
2022-08-31T15:53:23.880Z,70.14
2022-08-31T15:55:52.156Z,69.35
2022-08-31T15:58:24.471Z,70.00
2022-08-31T16:00:56.391Z,69.93
2022-08-31T16:03:23.677Z,70.41
2022-08-31T16:06:04.330Z,70.30
2022-08-31T16:08:31.300Z,70.70
2022-08-31T16:10:58.466Z,71.36
2022-08-31T16:13:25.555Z,71.39
2022-08-31T16:16:32.965Z,71.63
2022-08-31T16:19:05.845Z,72.81
2022-08-31T16:21:37.875Z,73.40
2022-08-31T16:24:08.795Z,73.27
2022-08-31T16:26:39.831Z,73.57
2022-08-31T16:29:09.613Z,73.22
2022-08-31T16:31:36.662Z,72.67
2022-08-31T16:34:03.493Z,72.94
2022-08-31T16:36:30.494Z,72.61
2022-08-31T16:38:59.868Z,72.99
2022-08-31T16:41:30.729Z,73.30
2022-08-31T16:44:18.519Z,73.78
2022-08-31T16:46:45.915Z,74.01
2022-08-31T16:49:31.208Z,73.82
2022-08-31T16:52:00.729Z,73.98
2022-08-31T16:54:28.757Z,73.58
2022-08-31T16:56:57.636Z,73.27
2022-08-31T16:59:34.614Z,73.36
2022-08-31T17:02:01.425Z,73.98
2022-08-31T17:04:50.954Z,73.75
2022-08-31T17:07:17.535Z,73.90
2022-08-31T17:09:45.092Z,74.28
2022-08-31T17:12:17.345Z,74.53
2022-08-31T17:14:50.037Z,74.76
2022-08-31T17:17:24.170Z,75.04
2022-08-31T17:19:56.229Z,75.76
2022-08-31T17:22:38.162Z,75.32
2022-08-31T17:25:05.297Z,75.09
2022-08-31T17:27:34.548Z,75.12
2022-08-31T17:30:06.176Z,75.56
2022-08-31T17:32:39.435Z,75.88
2022-08-31T17:35:13.063Z,75.16
2022-08-31T17:37:43.880Z,75.12
2022-08-31T17:40:19.965Z,75.27
2022-08-31T17:45:37.594Z,75.74
2022-08-31T17:48:16.220Z,75.48
2022-08-31T17:50:49.754Z,75.18
2022-08-31T17:56:13.171Z,76.98
2022-08-31T17:58:39.998Z,77.03
2022-08-31T18:01:07.176Z,77.05
2022-08-31T18:03:34.002Z,76.65
2022-08-31T18:06:00.807Z,76.57
2022-08-31T18:08:27.515Z,76.96
2022-08-31T18:10:54.564Z,77.13
2022-08-31T18:13:22.335Z,77.30
2022-08-31T18:15:51.220Z,77.08
2022-08-31T18:18:21.305Z,77.28
2022-08-31T18:20:48.033Z,77.96
2022-08-31T18:23:16.579Z,78.46
2022-08-31T18:25:43.214Z,78.13
2022-08-31T18:28:09.908Z,77.64
2022-08-31T18:30:40.276Z,77.08
2022-08-31T18:33:14.852Z,77.94
2022-08-31T18:35:46.207Z,78.60
2022-08-31T18:38:28.761Z,79.09
2022-08-31T18:41:24.248Z,78.99
2022-08-31T18:47:35.502Z,79.37
2022-08-31T18:50:05.315Z,79.21
2022-08-31T18:52:33.332Z,79.66
2022-08-31T18:55:00.201Z,80.00
2022-08-31T18:57:49.099Z,81.53
2022-08-31T19:00:18.026Z,81.59
2022-08-31T19:02:45.207Z,82.65
2022-08-31T19:05:15.853Z,82.68
2022-08-31T19:10:25.721Z,83.15
2022-08-31T19:12:55.934Z,83.03
2022-08-31T19:15:36.229Z,82.74
2022-08-31T19:23:36.825Z,82.61
2022-08-31T19:26:07.090Z,82.78
2022-08-31T19:28:36.042Z,83.09
2022-08-31T19:31:02.850Z,82.40
2022-08-31T19:33:34.177Z,82.20
2022-08-31T19:36:04.524Z,81.93
2022-08-31T19:38:31.512Z,82.07
2022-08-31T19:41:02.930Z,82.27
2022-08-31T19:43:49.027Z,82.47
2022-08-31T19:52:14.812Z,84.52
2022-08-31T19:54:50.311Z,85.15
2022-08-31T19:57:32.669Z,85.98
2022-08-31T20:06:25.553Z,86.90
2022-08-31T20:08:58.487Z,86.78
2022-08-31T20:11:31.465Z,86.22
2022-08-31T20:14:00.119Z,85.75
2022-08-31T20:16:34.353Z,86.20
2022-08-31T20:22:07.176Z,86.66
2022-08-31T20:28:07.667Z,86.64
2022-08-31T20:30:42.619Z,86.62
2022-08-31T20:33:16.094Z,86.57
2022-08-31T20:38:47.997Z,86.60
2022-08-31T20:48:14.711Z,86.55
2022-08-31T20:50:54.003Z,86.53
2022-08-31T20:53:42.815Z,86.53
2022-08-31T20:56:18.476Z,87.32
2022-08-31T20:58:49.152Z,86.82
2022-08-31T21:01:17.266Z,86.09
2022-08-31T21:03:47.415Z,85.84
2022-08-31T21:06:15.549Z,86.32
2022-08-31T21:08:46.279Z,86.96
2022-08-31T21:11:18.821Z,87.58
2022-08-31T21:13:47.133Z,87.91
2022-08-31T21:16:20.755Z,88.85
2022-08-31T21:18:52.640Z,88.80
2022-08-31T21:21:24.889Z,88.31
2022-08-31T21:23:54.522Z,88.11
2022-08-31T21:26:24.634Z,87.98
2022-08-31T21:28:52.830Z,88.16
2022-08-31T21:31:28.592Z,88.08
2022-08-31T21:34:09.462Z,88.36
2022-08-31T21:36:41.131Z,88.37
2022-08-31T21:39:14.499Z,88.28
2022-08-31T21:41:45.251Z,88.41
2022-08-31T21:44:15.009Z,87.99
2022-08-31T21:46:50.786Z,87.29
2022-08-31T21:49:21.387Z,87.46
2022-08-31T21:51:54.195Z,87.73
2022-08-31T21:54:28.788Z,88.01
2022-08-31T21:56:59.600Z,87.56
2022-08-31T21:59:30.279Z,88.33
2022-08-31T22:02:01.399Z,88.22
2022-08-31T22:04:33.151Z,88.43
2022-08-31T22:07:00.184Z,88.16
2022-08-31T22:09:29.041Z,88.47
2022-08-31T22:11:57.988Z,87.96
2022-08-31T22:14:32.064Z,88.05
2022-08-31T22:17:03.384Z,88.67
2022-08-31T22:19:34.223Z,88.33
2022-08-31T22:22:05.232Z,88.45
2022-08-31T22:24:36.262Z,88.04
2022-08-31T22:27:08.568Z,88.34
2022-08-31T22:29:36.710Z,88.30
2022-08-31T22:32:10.829Z,88.15
2022-08-31T22:34:39.233Z,88.28
2022-08-31T22:37:10.440Z,88.41
2022-08-31T22:39:38.628Z,88.76
2022-08-31T22:42:05.688Z,88.43
2022-08-31T22:44:35.345Z,88.65
2022-08-31T22:47:02.896Z,89.13
2022-08-31T22:49:29.951Z,89.23
2022-08-31T22:52:00.334Z,89.14
2022-08-31T22:54:27.678Z,88.87
2022-08-31T22:56:56.811Z,88.86
2022-08-31T22:59:36.130Z,89.34
2022-08-31T23:02:07.722Z,88.90
2022-08-31T23:04:44.141Z,88.68
2022-08-31T23:07:12.956Z,88.88
2022-08-31T23:09:39.633Z,89.14
2022-08-31T23:12:08.462Z,88.57
2022-08-31T23:14:41.755Z,88.15
2022-08-31T23:17:16.717Z,88.25
2022-08-31T23:19:46.910Z,88.78
2022-08-31T23:22:16.076Z,88.63
2022-08-31T23:24:51.501Z,89.07
2022-08-31T23:27:24.352Z,89.51
2022-08-31T23:29:59.168Z,89.69
2022-08-31T23:32:28.545Z,90.42
2022-08-31T23:34:58.362Z,90.73
2022-08-31T23:37:26.735Z,90.87
2022-08-31T23:39:59.205Z,90.90
2022-08-31T23:42:28.222Z,90.66
2022-08-31T23:44:55.575Z,90.78
2022-08-31T23:47:29.190Z,90.73
2022-08-31T23:49:57.859Z,90.85
2022-08-31T23:52:27.703Z,91.25
2022-08-31T23:55:01.079Z,91.35
2022-08-31T23:57:33.617Z,91.11
